createdAt,value
2019-06-10T00:00:13.772Z,13.60
2019-06-10T00:02:35.648Z,13.60
2019-06-10T00:05:07.180Z,13.60
2019-06-10T00:07:33.658Z,13.60
2019-06-10T00:10:03.996Z,13.60
2019-06-10T00:12:31.467Z,13.50
2019-06-10T00:14:58.712Z,13.50
2019-06-10T00:17:25.188Z,13.50
2019-06-10T00:19:51.809Z,13.50
2019-06-10T00:22:18.283Z,13.50
2019-06-10T00:24:44.657Z,13.50
2019-06-10T00:27:11.850Z,13.50
2019-06-10T00:29:40.735Z,13.50
2019-06-10T00:32:08.531Z,13.50
2019-06-10T00:34:35.225Z,13.50
2019-06-10T00:37:04.515Z,13.50
2019-06-10T00:39:31.268Z,13.50
2019-06-10T00:41:58.024Z,13.40
2019-06-10T00:44:24.689Z,13.40
2019-06-10T00:46:51.748Z,13.50
2019-06-10T00:49:21.984Z,13.40
2019-06-10T00:51:50.956Z,13.40
2019-06-10T00:54:17.263Z,13.40
2019-06-10T00:56:43.786Z,13.40
2019-06-10T00:59:12.753Z,13.40
2019-06-10T01:01:41.378Z,13.40
2019-06-10T01:04:08.655Z,13.40
2019-06-10T01:06:35.532Z,13.40
2019-06-10T01:09:02.580Z,13.40
2019-06-10T01:11:31.102Z,13.40
2019-06-10T01:13:57.630Z,13.40
2019-06-10T01:16:25.885Z,13.40
2019-06-10T01:18:53.568Z,13.40
2019-06-10T01:21:21.817Z,13.40
2019-06-10T01:23:50.848Z,13.40
2019-06-10T01:26:18.231Z,13.40
2019-06-10T01:28:44.777Z,13.40
2019-06-10T01:31:18.686Z,13.40
2019-06-10T01:33:41.108Z,13.40
2019-06-10T01:36:07.793Z,13.30
2019-06-10T01:38:34.373Z,13.30
2019-06-10T01:41:01.478Z,13.30
2019-06-10T01:43:31.943Z,13.30
2019-06-10T01:45:56.528Z,13.30
2019-06-10T01:48:23.048Z,13.40
2019-06-10T01:50:51.245Z,13.30
2019-06-10T01:53:18.848Z,13.30
2019-06-10T01:55:45.436Z,13.30
2019-06-10T01:58:14.746Z,13.40
2019-06-10T02:00:41.940Z,13.40
2019-06-10T02:03:11.595Z,13.40
2019-06-10T02:05:36.817Z,13.40
2019-06-10T02:08:03.464Z,13.40
2019-06-10T02:10:31.063Z,13.50
2019-06-10T02:12:57.582Z,13.50
2019-06-10T02:15:24.205Z,13.50
2019-06-10T02:17:51.063Z,13.50
2019-06-10T02:20:18.466Z,13.50
2019-06-10T02:22:45.673Z,13.50
2019-06-10T02:25:13.637Z,13.60
2019-06-10T02:27:41.473Z,13.60
2019-06-10T02:30:19.002Z,13.60
2019-06-10T02:32:37.871Z,13.60
2019-06-10T02:35:14.356Z,13.60
2019-06-10T02:37:37.929Z,13.60
2019-06-10T02:40:04.541Z,13.60
2019-06-10T02:42:35.772Z,13.60
2019-06-10T02:45:03.733Z,13.60
2019-06-10T02:47:33.565Z,13.60
2019-06-10T02:50:03.326Z,13.60
2019-06-10T02:52:32.953Z,13.60
2019-06-10T02:54:54.944Z,13.60
2019-06-10T02:57:29.699Z,13.50
2019-06-10T02:59:49.916Z,13.50
2019-06-10T03:02:18.144Z,13.60
2019-06-10T03:04:44.530Z,13.60
2019-06-10T03:07:13.714Z,13.60
2019-06-10T03:09:39.352Z,13.60
2019-06-10T03:12:05.985Z,13.60
2019-06-10T03:14:32.888Z,13.60
2019-06-10T03:17:03.194Z,13.60
2019-06-10T03:19:42.226Z,13.60
2019-06-10T03:21:57.981Z,13.70
2019-06-10T03:24:25.355Z,13.70
2019-06-10T03:26:52.297Z,13.70
2019-06-10T03:29:18.797Z,13.80
2019-06-10T03:31:48.251Z,13.80
2019-06-10T03:34:14.890Z,13.80
2019-06-10T03:36:42.907Z,13.80
2019-06-10T03:39:09.562Z,13.80
2019-06-10T03:41:36.129Z,13.80
2019-06-10T03:44:02.767Z,13.80
2019-06-10T03:46:29.370Z,13.80
2019-06-10T03:48:55.753Z,13.90
2019-06-10T03:51:24.296Z,13.90
2019-06-10T03:53:50.360Z,13.90
2019-06-10T03:56:17.154Z,14.00
2019-06-10T03:58:43.907Z,14.00
2019-06-10T04:01:12.299Z,14.10
2019-06-10T04:03:38.344Z,14.20
2019-06-10T04:06:04.953Z,14.30
2019-06-10T04:08:32.911Z,14.40
2019-06-10T04:10:59.737Z,14.40
2019-06-10T04:13:27.247Z,14.50
2019-06-10T04:15:56.346Z,14.50
2019-06-10T04:18:26.022Z,14.60
2019-06-10T04:20:52.891Z,14.70
2019-06-10T04:23:19.686Z,14.90
2019-06-10T04:25:46.294Z,15.10
2019-06-10T04:28:12.792Z,15.20
2019-06-10T04:30:39.357Z,15.10
2019-06-10T04:33:06.125Z,15.00
2019-06-10T04:35:33.677Z,15.00
2019-06-10T04:38:02.394Z,15.00
2019-06-10T04:40:29.345Z,15.00
2019-06-10T04:42:55.956Z,15.10
2019-06-10T04:45:23.591Z,15.20
2019-06-10T04:47:52.424Z,15.30
2019-06-10T04:50:28.348Z,15.20
2019-06-10T04:52:47.441Z,15.10
2019-06-10T04:55:14.077Z,15.10
2019-06-10T04:57:42.917Z,15.20
2019-06-10T05:00:13.848Z,15.20
2019-06-10T05:02:37.685Z,15.20
2019-06-10T05:05:04.256Z,15.20
2019-06-10T05:07:36.520Z,15.20
2019-06-10T05:09:59.532Z,15.20
2019-06-10T05:12:26.754Z,15.20
2019-06-10T05:14:54.512Z,15.20
2019-06-10T05:17:22.198Z,15.40
2019-06-10T05:19:49.210Z,15.40
2019-06-10T05:22:15.808Z,15.40
2019-06-10T05:24:42.491Z,15.40
2019-06-10T05:27:08.969Z,15.40
2019-06-10T05:29:35.695Z,15.40
2019-06-10T05:32:02.562Z,15.30
2019-06-10T05:34:30.313Z,15.40
2019-06-10T05:36:57.502Z,15.40
2019-06-10T05:39:27.080Z,15.40
2019-06-10T05:41:53.097Z,15.50
2019-06-10T05:44:19.722Z,15.50
2019-06-10T05:46:46.634Z,15.70
2019-06-10T05:49:13.091Z,15.70
2019-06-10T05:51:42.119Z,15.70
2019-06-10T05:54:08.158Z,15.70
2019-06-10T05:56:35.669Z,15.80
2019-06-10T05:59:04.404Z,15.80
2019-06-10T06:01:36.292Z,15.90
2019-06-10T06:03:59.373Z,16.00
2019-06-10T06:06:27.046Z,16.10
2019-06-10T06:08:53.639Z,16.20
2019-06-10T06:11:22.946Z,16.20
2019-06-10T06:13:49.069Z,16.20
2019-06-10T06:16:15.576Z,16.30
2019-06-10T06:18:42.496Z,16.50
2019-06-10T06:21:22.557Z,16.50
2019-06-10T06:23:39.133Z,16.50
2019-06-10T06:26:05.783Z,16.60
2019-06-10T06:28:36.071Z,16.70
2019-06-10T06:31:03.329Z,16.80
2019-06-10T06:33:32.771Z,16.90
2019-06-10T06:35:58.427Z,17.00
2019-06-10T06:38:24.963Z,17.10
2019-06-10T06:40:53.733Z,17.20
2019-06-10T06:43:23.016Z,17.40
2019-06-10T06:45:49.976Z,17.50
2019-06-10T06:48:16.648Z,17.60
2019-06-10T06:51:00.314Z,17.50
2019-06-10T06:53:21.147Z,17.50
2019-06-10T06:55:40.118Z,17.70
2019-06-10T06:58:06.631Z,17.90
2019-06-10T07:00:48.896Z,18.90
2019-06-10T07:03:03.175Z,20.40
2019-06-10T07:05:32.698Z,21.60
2019-06-10T07:08:02.418Z,22.40
2019-06-10T07:10:32.868Z,22.80
2019-06-10T07:13:02.834Z,23.20
2019-06-10T07:15:39.692Z,23.70
2019-06-10T07:18:06.929Z,23.70
2019-06-10T07:20:36.300Z,23.90
2019-06-10T07:23:02.679Z,24.20
2019-06-10T07:25:29.281Z,24.40
2019-06-10T07:27:55.745Z,25.10
2019-06-10T07:30:22.987Z,25.10
2019-06-10T07:32:49.674Z,25.00
2019-06-10T07:35:16.217Z,24.90
2019-06-10T07:37:44.512Z,24.90
2019-06-10T07:40:12.944Z,25.40
2019-06-10T07:42:39.454Z,26.00
2019-06-10T07:45:06.035Z,25.90
2019-06-10T07:47:33.907Z,25.90
2019-06-10T07:50:03.047Z,25.70
2019-06-10T07:52:29.603Z,25.90
2019-06-10T07:54:56.130Z,26.00
2019-06-10T07:57:22.811Z,25.50
2019-06-10T07:59:49.310Z,25.00
2019-06-10T08:02:15.821Z,24.50
2019-06-10T08:04:45.557Z,24.50
2019-06-10T08:07:12.492Z,24.90
2019-06-10T08:09:39.233Z,25.10
2019-06-10T08:12:06.113Z,24.70
2019-06-10T08:14:33.044Z,24.10
2019-06-10T08:16:59.854Z,24.50
2019-06-10T08:19:34.971Z,24.70
2019-06-10T08:21:54.808Z,24.60
2019-06-10T08:24:22.128Z,24.50
2019-06-10T08:26:49.120Z,23.90
2019-06-10T08:29:15.591Z,24.00
2019-06-10T08:31:47.586Z,24.70
2019-06-10T08:34:12.891Z,25.10
2019-06-10T08:36:39.945Z,25.90
2019-06-10T08:39:07.293Z,26.20
2019-06-10T08:41:34.257Z,26.40
2019-06-10T08:44:02.309Z,26.30
2019-06-10T08:46:30.102Z,26.10
2019-06-10T08:48:56.593Z,25.40
2019-06-10T08:51:23.892Z,24.80
2019-06-10T08:53:52.942Z,23.90
2019-06-10T08:56:18.870Z,23.20
2019-06-10T08:58:48.879Z,23.70
2019-06-10T09:01:13.878Z,24.30
2019-06-10T09:03:44.730Z,25.00
2019-06-10T09:06:08.859Z,25.80
2019-06-10T09:08:35.501Z,26.10
2019-06-10T09:11:02.493Z,26.30
2019-06-10T09:13:29.211Z,26.60
2019-06-10T09:16:11.693Z,26.90
2019-06-10T09:18:24.284Z,27.40
2019-06-10T09:20:55.284Z,27.10
2019-06-10T09:23:23.162Z,26.90
2019-06-10T09:25:52.860Z,26.70
2019-06-10T09:28:16.228Z,26.40
2019-06-10T09:30:47.609Z,26.60
2019-06-10T09:33:15.361Z,27.10
2019-06-10T09:35:45.777Z,27.60
2019-06-10T09:38:10.333Z,27.60
2019-06-10T09:40:48.408Z,27.30
2019-06-10T09:43:12.949Z,27.40
2019-06-10T09:45:40.880Z,27.90
2019-06-10T09:48:07.998Z,27.40
2019-06-10T09:50:45.468Z,27.40
2019-06-10T09:53:08.720Z,27.20
2019-06-10T09:55:35.181Z,26.60
2019-06-10T09:58:03.195Z,26.50
2019-06-10T10:00:47.334Z,26.20
2019-06-10T10:03:12.465Z,26.00
2019-06-10T10:05:43.135Z,26.10
2019-06-10T10:08:07.824Z,26.40
2019-06-10T10:10:36.218Z,26.90
2019-06-10T10:13:04.332Z,27.20
2019-06-10T10:15:34.414Z,27.20
2019-06-10T10:17:59.395Z,27.40
2019-06-10T10:20:25.942Z,27.80
2019-06-10T10:22:55.419Z,28.20
2019-06-10T10:25:23.541Z,28.10
2019-06-10T10:27:53.334Z,28.20
2019-06-10T10:30:24.462Z,27.90
2019-06-10T10:32:52.324Z,27.50
2019-06-10T10:35:18.825Z,27.70
2019-06-10T10:37:46.406Z,27.70
2019-06-10T10:40:13.034Z,27.80
2019-06-10T10:42:46.004Z,27.90
2019-06-10T10:45:10.234Z,27.70
2019-06-10T10:47:36.739Z,27.70
2019-06-10T10:50:17.961Z,27.80
2019-06-10T13:06:46.645Z,24.20
2019-06-10T13:09:18.488Z,24.00
2019-06-10T13:11:53.119Z,23.90
2019-06-10T13:14:29.038Z,24.00
2019-06-10T13:16:55.826Z,24.00
2019-06-10T13:19:23.165Z,23.90
2019-06-10T13:21:49.720Z,24.20
2019-06-10T13:24:16.254Z,24.10
2019-06-10T13:26:43.313Z,24.40
2019-06-10T13:29:10.354Z,24.70
2019-06-10T13:31:37.779Z,24.50
2019-06-10T13:34:18.789Z,24.50
2019-06-10T13:36:45.158Z,25.00
2019-06-10T13:39:13.430Z,25.40
2019-06-10T13:41:40.074Z,25.80
2019-06-10T13:44:16.908Z,26.10
2019-06-10T13:46:43.522Z,26.40
2019-06-10T13:49:12.337Z,26.10
2019-06-10T13:51:38.419Z,25.80
2019-06-10T13:54:06.679Z,25.60
2019-06-10T13:56:46.595Z,25.40
2019-06-10T13:59:16.817Z,24.90
2019-06-10T14:01:48.551Z,24.70
2019-06-10T14:04:24.815Z,24.60
2019-06-10T14:06:50.574Z,24.60
2019-06-10T14:09:16.926Z,24.30
2019-06-10T14:11:43.561Z,24.20
2019-06-10T14:14:10.073Z,24.40
2019-06-10T14:16:42.361Z,24.40
2019-06-10T14:19:28.887Z,24.60
2019-06-10T14:21:55.309Z,24.70
2019-06-10T14:24:22.842Z,25.10
2019-06-10T14:26:54.576Z,25.30
2019-06-10T14:29:21.040Z,25.60
2019-06-10T14:31:48.176Z,25.70
2019-06-10T14:34:22.326Z,25.60
2019-06-10T14:37:03.720Z,25.60
2019-06-10T14:39:52.751Z,25.60
2019-06-10T14:42:18.911Z,25.80
2019-06-10T14:44:45.293Z,26.00
2019-06-10T14:47:16.998Z,26.00
2019-06-10T14:49:53.805Z,25.80
2019-06-10T14:52:22.576Z,25.30
2019-06-10T14:54:48.580Z,24.90
2019-06-10T14:57:16.421Z,24.30
2019-06-10T14:59:43.526Z,24.10
2019-06-10T15:02:12.551Z,24.30
2019-06-10T15:04:38.325Z,24.40
2019-06-10T15:07:05.030Z,24.60
2019-06-10T15:09:33.460Z,24.50
2019-06-10T15:12:02.826Z,24.50
2019-06-10T15:14:39.847Z,24.50
2019-06-10T15:17:08.375Z,24.10
2019-06-10T15:19:35.089Z,23.90
2019-06-10T15:22:26.565Z,24.20
2019-06-10T15:24:58.088Z,24.10
2019-06-10T15:27:31.668Z,24.10
2019-06-10T15:30:04.417Z,23.90
2019-06-10T15:32:34.533Z,24.00
2019-06-10T15:35:05.604Z,23.90
2019-06-10T15:37:33.019Z,23.90
2019-06-10T15:39:59.890Z,23.70
2019-06-10T15:42:33.317Z,23.50
2019-06-10T15:45:13.301Z,23.30
2019-06-10T15:47:38.665Z,23.10
2019-06-10T15:50:07.424Z,23.00
2019-06-10T15:52:39.187Z,23.20
2019-06-10T15:55:05.854Z,23.20
2019-06-10T15:57:42.643Z,23.10
2019-06-10T16:00:11.279Z,23.30
2019-06-10T16:02:34.603Z,23.20
2019-06-10T16:05:01.148Z,23.00
2019-06-10T16:07:27.828Z,22.90
2019-06-10T16:09:54.508Z,23.10
2019-06-10T16:12:26.569Z,23.20
2019-06-10T16:14:50.082Z,22.90
2019-06-10T16:17:19.168Z,22.70
2019-06-10T16:19:45.904Z,22.60
2019-06-10T16:22:14.033Z,22.70
2019-06-10T16:24:42.310Z,22.70
2019-06-10T16:27:08.792Z,22.40
2019-06-10T16:29:42.361Z,22.30
2019-06-10T16:32:14.636Z,22.30
2019-06-10T16:34:41.129Z,22.40
2019-06-10T16:37:07.759Z,22.20
2019-06-10T16:39:34.252Z,22.40
2019-06-10T16:42:05.887Z,22.30
2019-06-10T16:44:32.939Z,22.10
2019-06-10T16:47:14.499Z,22.10
2019-06-10T16:49:42.870Z,22.10
2019-06-10T16:52:09.463Z,22.10
2019-06-10T16:54:42.062Z,22.20
2019-06-10T16:57:14.918Z,22.30
2019-06-10T16:59:42.933Z,22.40
2019-06-10T17:02:12.770Z,22.30
2019-06-10T17:04:39.397Z,22.10
2019-06-10T17:07:05.897Z,22.00
2019-06-10T17:09:32.819Z,21.90
2019-06-10T17:12:02.080Z,21.80
2019-06-10T17:14:27.874Z,21.50
2019-06-10T17:16:54.753Z,21.20
2019-06-10T17:19:26.341Z,21.10
2019-06-10T17:21:49.865Z,21.10
2019-06-10T17:24:16.391Z,21.20
2019-06-10T17:26:44.161Z,21.10
2019-06-10T17:29:10.818Z,21.00
2019-06-10T17:31:37.457Z,21.00
2019-06-10T17:34:04.105Z,21.00
2019-06-10T17:36:32.840Z,20.80
2019-06-10T17:38:58.871Z,20.90
2019-06-10T17:41:27.560Z,20.80
2019-06-10T17:43:58.709Z,20.70
2019-06-10T17:46:27.833Z,20.80
2019-06-10T17:48:53.475Z,20.80
2019-06-10T17:51:22.342Z,20.80
2019-06-10T17:53:48.245Z,20.70
2019-06-10T17:56:14.711Z,20.60
2019-06-10T17:58:51.571Z,20.50
2019-06-10T18:01:09.659Z,20.40
2019-06-10T18:03:39.787Z,20.40
2019-06-10T18:06:06.481Z,20.40
2019-06-10T18:08:36.320Z,20.30
2019-06-10T18:11:03.212Z,20.30
2019-06-10T18:13:44.721Z,20.40
2019-06-10T18:16:13.167Z,20.30
2019-06-10T18:18:39.630Z,20.30
2019-06-10T18:21:06.805Z,20.20
2019-06-10T18:23:33.355Z,20.20
2019-06-10T18:26:03.272Z,20.20
2019-06-10T18:28:31.359Z,20.20
2019-06-10T18:30:58.553Z,20.20
2019-06-10T18:33:27.672Z,20.30
2019-06-10T18:36:00.330Z,20.30
2019-06-10T18:38:27.336Z,20.20
2019-06-10T18:40:53.894Z,20.10
2019-06-10T18:43:22.688Z,20.10
2019-06-10T18:45:48.829Z,20.00
2019-06-10T18:48:15.454Z,19.90
2019-06-10T18:50:43.642Z,19.90
2019-06-10T18:53:12.829Z,20.00
2019-06-10T18:55:40.578Z,19.90
2019-06-10T18:58:07.026Z,19.90
2019-06-10T19:00:56.962Z,19.80
2019-06-10T19:03:15.872Z,19.70
2019-06-10T19:05:42.114Z,19.70
2019-06-10T19:08:08.533Z,19.60
2019-06-10T19:10:37.060Z,19.60
2019-06-10T19:13:03.544Z,19.60
2019-06-10T19:15:29.929Z,19.40
2019-06-10T19:18:14.971Z,19.30
2019-06-10T19:20:42.575Z,19.20
2019-06-10T19:23:08.056Z,19.10
2019-06-10T19:25:38.472Z,19.00
2019-06-10T19:28:04.150Z,19.00
2019-06-10T19:30:33.539Z,19.00
2019-06-10T19:33:04.193Z,19.00
2019-06-10T19:35:37.003Z,19.00
2019-06-10T19:38:04.328Z,19.10
2019-06-10T19:40:32.558Z,19.10
2019-06-10T19:42:59.147Z,19.00
2019-06-10T19:45:25.660Z,19.00
2019-06-10T19:47:52.342Z,19.00
2019-06-10T19:50:18.960Z,19.00
2019-06-10T19:52:45.612Z,18.80
2019-06-10T19:55:13.409Z,18.80
2019-06-10T19:57:39.825Z,18.70
2019-06-10T20:00:12.415Z,18.70
2019-06-10T20:02:44.557Z,18.60
2019-06-10T20:05:12.469Z,18.60
2019-06-10T20:07:42.027Z,18.50
2019-06-10T20:10:13.777Z,18.40
2019-06-10T20:12:46.747Z,18.30
2019-06-10T20:15:32.818Z,18.30
2019-06-10T20:17:59.617Z,18.10
2019-06-10T20:20:36.242Z,18.00
2019-06-10T20:23:03.238Z,17.90
2019-06-10T20:25:29.836Z,17.90
2019-06-10T20:27:57.419Z,17.80
2019-06-10T20:30:28.740Z,17.70
2019-06-10T20:32:58.266Z,17.60
2019-06-10T20:35:25.197Z,17.50
2019-06-10T20:37:53.812Z,17.40
2019-06-10T20:40:20.326Z,17.30
2019-06-10T20:42:47.080Z,17.30
2019-06-10T20:45:13.652Z,17.20
2019-06-10T20:47:43.063Z,17.20
2019-06-10T20:50:08.844Z,17.10
2019-06-10T20:52:35.336Z,17.10
2019-06-10T20:55:02.999Z,17.10
2019-06-10T20:57:29.862Z,17.10
2019-06-10T20:59:56.231Z,17.00
2019-06-10T21:02:23.403Z,17.00
2019-06-10T21:04:50.098Z,17.00
2019-06-10T21:07:18.763Z,16.90
2019-06-10T21:09:47.142Z,16.90
2019-06-10T21:12:13.982Z,16.90
2019-06-10T21:14:42.343Z,16.90
2019-06-10T21:17:08.790Z,16.90
2019-06-10T21:19:35.155Z,16.90
2019-06-10T21:22:02.735Z,16.80
2019-06-10T21:24:34.299Z,16.60
2019-06-10T21:27:00.694Z,16.60
2019-06-10T21:29:27.306Z,16.60
2019-06-10T21:31:54.830Z,16.60
2019-06-10T21:34:23.908Z,16.60
2019-06-10T21:36:52.753Z,16.60
2019-06-10T21:39:18.719Z,16.50
2019-06-10T21:41:46.582Z,16.50
2019-06-10T21:44:13.420Z,16.40
2019-06-10T21:46:39.708Z,16.30
2019-06-10T21:49:06.212Z,16.30
2019-06-10T21:51:34.640Z,16.20
2019-06-10T21:54:02.913Z,16.20
2019-06-10T21:56:29.164Z,16.00
2019-06-10T21:58:55.754Z,16.00
2019-06-10T22:01:27.490Z,16.10
2019-06-10T22:04:00.439Z,16.10
2019-06-10T22:06:22.911Z,16.10
2019-06-10T22:08:50.079Z,16.00
2019-06-10T22:11:16.641Z,15.90
2019-06-10T22:13:48.144Z,15.90
2019-06-10T22:16:24.630Z,15.90
2019-06-10T22:18:51.013Z,15.80
2019-06-10T22:21:23.156Z,15.70
2019-06-10T22:23:50.778Z,15.80
2019-06-10T22:26:17.992Z,15.70
2019-06-10T22:28:45.400Z,15.60
2019-06-10T22:31:19.158Z,15.70
2019-06-10T22:33:40.026Z,15.60
2019-06-10T22:36:06.569Z,15.70
2019-06-10T22:38:32.996Z,15.70
2019-06-10T22:40:59.342Z,15.70
2019-06-10T22:43:25.782Z,15.70
2019-06-10T22:45:54.241Z,15.60
2019-06-10T22:48:22.444Z,15.60
2019-06-10T22:50:48.989Z,15.60
2019-06-10T22:53:15.600Z,15.50
2019-06-10T22:55:43.236Z,15.50
2019-06-10T22:58:23.455Z,15.50
2019-06-10T23:00:48.292Z,15.50
2019-06-10T23:03:14.748Z,15.40
2019-06-10T23:05:46.153Z,15.40
2019-06-10T23:08:12.830Z,15.40
2019-06-10T23:10:39.357Z,15.40
2019-06-10T23:13:05.871Z,15.50
2019-06-10T23:15:37.243Z,15.60
2019-06-10T23:18:08.515Z,15.70
2019-06-10T23:20:34.859Z,15.70
2019-06-10T23:23:03.068Z,15.50
2019-06-10T23:25:29.343Z,15.50
2019-06-10T23:27:57.915Z,15.50
2019-06-10T23:30:23.991Z,15.50
2019-06-10T23:32:52.828Z,15.60
2019-06-10T23:35:18.820Z,15.70
2019-06-10T23:37:45.181Z,15.80
2019-06-10T23:40:12.699Z,15.80
2019-06-10T23:42:44.207Z,15.60
2019-06-10T23:45:12.768Z,15.60
2019-06-10T23:47:38.983Z,15.60
2019-06-10T23:50:05.636Z,15.60
2019-06-10T23:52:32.998Z,15.60
2019-06-10T23:54:59.987Z,15.60
2019-06-10T23:57:27.009Z,15.60
2019-06-10T23:59:55.076Z,15.70
